createdAt,value
2023-02-27T00:00:59.924Z,10.05
2023-02-27T00:03:27.959Z,7.32
2023-02-27T00:05:56.419Z,6.25
2023-02-27T00:08:24.245Z,8.00
2023-02-27T00:10:51.956Z,8.07
2023-02-27T00:13:19.456Z,6.68
2023-02-27T00:15:48.061Z,7.45
2023-02-27T00:18:15.571Z,8.73
2023-02-27T00:20:42.936Z,6.18
2023-02-27T00:23:13.144Z,7.07
2023-02-27T00:25:40.680Z,7.68
2023-02-27T00:28:07.965Z,10.52
2023-02-27T00:30:35.529Z,6.45
2023-02-27T00:33:03.738Z,6.97
2023-02-27T00:35:31.217Z,8.43
2023-02-27T00:37:58.940Z,9.07
2023-02-27T00:40:26.411Z,7.35
2023-02-27T00:42:54.168Z,10.60
2023-02-27T00:45:21.801Z,9.93
2023-02-27T00:47:49.336Z,8.55
2023-02-27T00:50:16.757Z,8.18
2023-02-27T00:52:44.660Z,9.75
2023-02-27T00:55:12.511Z,6.75
2023-02-27T00:57:40.449Z,10.50
2023-02-27T01:00:09.089Z,8.27
2023-02-27T01:02:36.783Z,8.18
2023-02-27T01:05:04.684Z,9.68
2023-02-27T01:07:32.309Z,7.30
2023-02-27T01:10:03.155Z,10.57
2023-02-27T01:12:30.560Z,9.48
2023-02-27T01:14:57.983Z,7.65
2023-02-27T01:17:25.270Z,6.65
2023-02-27T01:19:52.637Z,11.07
2023-02-27T01:22:20.138Z,8.38
2023-02-27T01:24:47.699Z,8.68
2023-02-27T01:27:15.205Z,9.77
2023-02-27T01:29:42.641Z,9.52
2023-02-27T01:32:10.393Z,15.82
2023-02-27T01:34:38.529Z,11.02
2023-02-27T01:37:06.051Z,7.38
2023-02-27T01:39:33.440Z,9.70
2023-02-27T01:42:01.119Z,11.00
2023-02-27T01:44:30.818Z,7.20
2023-02-27T01:46:58.446Z,8.75
2023-02-27T01:49:31.243Z,9.00
2023-02-27T01:52:03.204Z,8.63
2023-02-27T01:54:32.715Z,6.50
2023-02-27T01:57:06.855Z,8.05
2023-02-27T01:59:35.146Z,10.77
2023-02-27T02:02:09.714Z,10.05
2023-02-27T02:04:38.519Z,9.95
2023-02-27T02:07:13.422Z,11.07
2023-02-27T02:09:44.637Z,9.85
2023-02-27T02:12:15.161Z,9.20
2023-02-27T02:14:44.141Z,8.90
2023-02-27T02:17:48.045Z,9.07
2023-02-27T02:20:27.582Z,10.60
2023-02-27T02:23:19.598Z,9.63
2023-02-27T02:26:22.847Z,9.45
2023-02-27T02:29:12.775Z,9.10
2023-02-27T02:32:04.711Z,11.15
2023-02-27T02:35:01.544Z,8.60
2023-02-27T02:37:43.817Z,8.95
2023-02-27T02:40:22.504Z,9.35
2023-02-27T02:43:06.755Z,9.20
2023-02-27T02:45:54.982Z,8.88
2023-02-27T02:48:41.075Z,11.02
2023-02-27T02:51:22.700Z,8.75
2023-02-27T02:54:02.416Z,11.45
2023-02-27T02:56:36.855Z,7.55
2023-02-27T02:59:09.728Z,9.38
2023-02-27T03:01:41.210Z,9.02
2023-02-27T03:04:14.156Z,11.18
2023-02-27T03:06:46.287Z,6.85
2023-02-27T03:09:23.334Z,7.50
2023-02-27T03:11:52.283Z,6.78
2023-02-27T03:14:29.455Z,7.13
2023-02-27T03:16:59.644Z,7.95
2023-02-27T03:19:35.191Z,11.23
2023-02-27T03:22:31.342Z,11.45
2023-02-27T03:25:01.169Z,10.07
2023-02-27T03:27:36.143Z,8.65
2023-02-27T03:30:34.262Z,7.07
2023-02-27T03:33:07.957Z,6.10
2023-02-27T03:36:07.421Z,7.05
2023-02-27T03:38:45.385Z,7.70
2023-02-27T03:41:28.044Z,9.35
2023-02-27T03:44:19.878Z,8.55
2023-02-27T03:46:47.262Z,9.25
2023-02-27T03:49:14.854Z,6.68
2023-02-27T03:51:42.709Z,6.95
2023-02-27T03:54:14.578Z,7.93
2023-02-27T03:56:51.584Z,9.60
2023-02-27T03:59:19.002Z,8.77
2023-02-27T04:01:51.744Z,6.18
2023-02-27T04:04:19.688Z,5.95
2023-02-27T04:07:22.726Z,6.40
2023-02-27T04:10:17.161Z,6.22
2023-02-27T04:13:09.353Z,7.50
2023-02-27T04:15:48.871Z,5.50
2023-02-27T04:18:37.725Z,6.32
2023-02-27T04:21:29.362Z,6.93
2023-02-27T04:24:11.480Z,6.38
2023-02-27T04:27:03.233Z,8.00
2023-02-27T04:29:36.460Z,7.47
2023-02-27T04:32:36.096Z,7.18
2023-02-27T04:35:20.823Z,5.93
2023-02-27T04:38:06.092Z,6.70
2023-02-27T04:40:37.380Z,7.22
2023-02-27T04:43:07.204Z,6.07
2023-02-27T04:48:07.632Z,7.43
2023-02-27T04:50:39.099Z,9.80
2023-02-27T04:53:18.853Z,6.63
2023-02-27T04:55:50.054Z,10.13
2023-02-27T04:58:25.773Z,10.13
2023-02-27T05:01:00.824Z,10.05
2023-02-27T05:03:33.784Z,8.00
2023-02-27T05:06:02.698Z,7.28
2023-02-27T05:08:55.480Z,7.63
2023-02-27T05:11:46.272Z,8.68
2023-02-27T05:14:25.381Z,6.60
2023-02-27T05:17:05.525Z,8.30
2023-02-27T05:19:33.095Z,8.43
2023-02-27T05:22:16.125Z,12.65
2023-02-27T05:24:43.472Z,12.98
2023-02-27T05:27:20.549Z,8.18
2023-02-27T05:29:52.188Z,12.00
2023-02-27T05:32:23.285Z,10.75
2023-02-27T05:34:55.166Z,8.63
2023-02-27T05:37:32.299Z,6.88
2023-02-27T05:40:01.766Z,9.27
2023-02-27T05:42:33.504Z,10.35
2023-02-27T05:45:07.428Z,8.32
2023-02-27T05:47:37.438Z,8.38
2023-02-27T05:50:15.768Z,7.47
2023-02-27T05:52:44.122Z,10.10
2023-02-27T05:55:19.195Z,9.45
2023-02-27T05:57:55.576Z,10.43
2023-02-27T06:00:39.264Z,11.18
2023-02-27T06:03:06.761Z,9.50
2023-02-27T06:05:34.227Z,8.95
2023-02-27T06:08:01.812Z,7.90
2023-02-27T06:10:29.382Z,13.40
2023-02-27T06:12:56.673Z,8.35
2023-02-27T06:15:23.954Z,8.80
2023-02-27T06:17:51.296Z,9.18
2023-02-27T06:20:18.977Z,10.57
2023-02-27T06:22:46.333Z,9.23
2023-02-27T06:25:13.774Z,9.35
2023-02-27T06:27:41.309Z,9.10
2023-02-27T06:30:10.866Z,11.80
2023-02-27T06:32:38.249Z,18.30
2023-02-27T06:35:06.597Z,11.18
2023-02-27T06:37:34.106Z,9.55
2023-02-27T06:40:01.632Z,7.22
2023-02-27T06:42:29.200Z,10.70
2023-02-27T06:44:56.459Z,8.05
2023-02-27T06:47:24.152Z,9.20
2023-02-27T06:49:51.553Z,9.95
2023-02-27T06:52:19.039Z,8.05
2023-02-27T06:54:46.424Z,9.00
2023-02-27T06:57:13.736Z,8.57
2023-02-27T06:59:42.033Z,11.55
2023-02-27T07:02:14.200Z,9.80
2023-02-27T07:04:42.123Z,8.60
2023-02-27T07:07:36.017Z,6.93
2023-02-27T07:09:57.049Z,12.45
2023-02-27T07:12:24.444Z,11.77
2023-02-27T07:14:51.750Z,12.13
2023-02-27T07:17:19.343Z,9.88
2023-02-27T07:19:46.782Z,12.38
2023-02-27T07:22:14.382Z,15.07
2023-02-27T07:24:42.236Z,11.18
2023-02-27T07:27:09.716Z,10.07
2023-02-27T07:29:37.140Z,10.95
2023-02-27T07:32:04.624Z,9.70
2023-02-27T07:34:32.023Z,9.50
2023-02-27T07:36:59.482Z,12.50
2023-02-27T07:39:26.823Z,8.02
2023-02-27T07:41:54.234Z,11.43
2023-02-27T07:44:22.787Z,8.73
2023-02-27T07:46:50.285Z,9.32
2023-02-27T07:49:17.820Z,9.88
2023-02-27T07:51:45.314Z,13.70
2023-02-27T07:54:12.809Z,10.95
2023-02-27T07:56:40.106Z,10.68
2023-02-27T07:59:07.737Z,13.50
2023-02-27T08:01:35.192Z,10.30
2023-02-27T08:04:02.887Z,12.35
2023-02-27T08:06:30.358Z,8.68
2023-02-27T08:08:59.762Z,11.30
2023-02-27T08:11:27.369Z,11.10
2023-02-27T08:14:00.596Z,8.60
2023-02-27T08:16:29.421Z,10.52
2023-02-27T08:18:57.457Z,15.57
2023-02-27T08:21:25.058Z,12.52
2023-02-27T08:23:52.859Z,9.25
2023-02-27T08:26:21.541Z,10.70
2023-02-27T08:28:49.035Z,13.93
2023-02-27T08:31:16.535Z,10.10
2023-02-27T08:33:44.137Z,13.32
2023-02-27T08:36:11.660Z,8.75
2023-02-27T08:38:39.097Z,8.38
2023-02-27T08:41:06.486Z,9.70
2023-02-27T08:43:33.974Z,10.15
2023-02-27T08:46:01.298Z,13.30
2023-02-27T08:48:28.906Z,17.60
2023-02-27T08:50:57.911Z,10.48
2023-02-27T08:53:25.551Z,9.98
2023-02-27T08:55:53.358Z,8.93
2023-02-27T08:58:20.939Z,12.05
2023-02-27T09:00:48.577Z,6.43
2023-02-27T09:03:16.501Z,7.63
2023-02-27T09:05:43.737Z,19.25
2023-02-27T09:08:11.829Z,8.90
2023-02-27T09:10:39.274Z,15.27
2023-02-27T09:13:06.681Z,23.73
2023-02-27T09:15:38.029Z,11.90
2023-02-27T09:18:07.032Z,6.32
2023-02-27T09:20:40.262Z,13.77
2023-02-27T09:23:08.022Z,10.88
2023-02-27T09:25:35.378Z,6.90
2023-02-27T09:28:03.168Z,6.63
2023-02-27T09:30:30.675Z,8.82
2023-02-27T09:32:57.967Z,8.82
2023-02-27T09:35:25.807Z,8.82
2023-02-27T09:37:53.326Z,7.10
2023-02-27T09:40:24.739Z,7.50
2023-02-27T09:42:58.231Z,11.88
2023-02-27T09:45:28.070Z,8.13
2023-02-27T09:48:01.888Z,8.13
2023-02-27T09:50:47.410Z,8.02
2023-02-27T09:53:19.356Z,8.10
2023-02-27T09:55:46.789Z,6.80
2023-02-27T09:58:38.016Z,9.23
2023-02-27T10:01:11.550Z,9.18
2023-02-27T10:03:57.410Z,7.22
2023-02-27T10:06:37.177Z,11.15
2023-02-27T10:09:10.566Z,12.00
2023-02-27T10:11:56.584Z,8.82
2023-02-27T10:14:43.929Z,7.72
2023-02-27T10:17:25.756Z,10.40
2023-02-27T10:19:53.798Z,7.20
2023-02-27T10:22:28.371Z,7.75
2023-02-27T10:25:03.967Z,5.63
2023-02-27T10:27:32.458Z,6.40
2023-02-27T10:30:28.821Z,10.73
2023-02-27T10:33:06.246Z,12.07
2023-02-27T10:35:42.343Z,11.02
2023-02-27T10:38:19.674Z,7.97
2023-02-27T10:40:48.348Z,8.88
2023-02-27T10:43:19.205Z,7.35
2023-02-27T10:45:46.669Z,7.28
2023-02-27T10:48:14.856Z,8.85
2023-02-27T10:50:44.774Z,12.27
2023-02-27T10:56:04.526Z,5.35
2023-02-27T10:58:34.982Z,8.50
2023-02-27T11:01:08.238Z,8.98
2023-02-27T11:03:39.916Z,8.63
2023-02-27T11:06:22.393Z,8.88
2023-02-27T11:09:27.859Z,5.68
2023-02-27T11:11:56.844Z,6.38
2023-02-27T11:14:31.632Z,6.40
2023-02-27T11:17:01.468Z,5.82
2023-02-27T11:19:39.301Z,5.18
2023-02-27T11:22:23.735Z,8.75
2023-02-27T11:24:53.470Z,6.05
2023-02-27T11:27:22.762Z,7.65
2023-02-27T11:29:58.165Z,3.75
2023-02-27T11:32:30.406Z,7.55
2023-02-27T11:34:58.040Z,7.00
2023-02-27T11:37:35.466Z,7.88
2023-02-27T11:40:06.899Z,7.78
2023-02-27T11:42:51.360Z,6.13
2023-02-27T11:46:04.905Z,6.68
2023-02-27T11:48:12.559Z,8.20
2023-02-27T11:50:52.033Z,8.63
2023-02-27T11:53:55.342Z,5.28
2023-02-27T11:56:44.209Z,9.80
2023-02-27T11:59:11.634Z,7.85
2023-02-27T12:01:45.683Z,4.70
2023-02-27T12:05:10.609Z,5.75
2023-02-27T12:07:54.391Z,8.38
2023-02-27T12:10:24.903Z,6.80
2023-02-27T12:12:57.146Z,10.00
2023-02-27T12:15:27.629Z,6.55
2023-02-27T12:18:09.334Z,5.68
2023-02-27T12:20:45.852Z,9.07
2023-02-27T12:23:29.538Z,12.32
2023-02-27T12:26:06.177Z,6.05
2023-02-27T12:28:53.305Z,6.03
2023-02-27T12:31:32.724Z,8.07
2023-02-27T12:34:19.075Z,6.47
2023-02-27T12:36:48.161Z,9.23
2023-02-27T12:39:23.789Z,8.05
2023-02-27T12:42:10.349Z,5.75
2023-02-27T12:44:54.803Z,5.55
2023-02-27T12:47:44.339Z,13.25
2023-02-27T12:50:13.174Z,11.82
2023-02-27T12:53:21.951Z,8.77
2023-02-27T12:55:58.599Z,5.20
2023-02-27T12:58:46.432Z,10.63
2023-02-27T13:01:29.190Z,9.32
2023-02-27T13:04:00.913Z,6.38
2023-02-27T13:07:11.089Z,5.82
2023-02-27T13:09:48.014Z,13.90
2023-02-27T13:12:32.187Z,9.13
2023-02-27T13:15:18.635Z,9.95
2023-02-27T13:17:49.568Z,7.70
2023-02-27T13:20:22.837Z,6.88
2023-02-27T13:23:19.517Z,6.65
2023-02-27T13:25:51.012Z,5.78
2023-02-27T13:28:27.786Z,6.93
2023-02-27T13:31:01.073Z,4.15
2023-02-27T13:33:43.580Z,5.00
2023-02-27T13:36:46.626Z,6.20
2023-02-27T13:39:37.088Z,5.10
2023-02-27T13:42:05.104Z,7.03
2023-02-27T13:44:40.815Z,5.18
2023-02-27T13:47:30.058Z,10.55
2023-02-27T13:50:02.597Z,4.20
2023-02-27T13:52:37.945Z,5.15
2023-02-27T13:55:35.342Z,7.05
2023-02-27T13:58:04.151Z,5.65
2023-02-27T14:00:33.778Z,4.72
2023-02-27T14:03:17.519Z,6.97
2023-02-27T14:05:46.938Z,4.97
2023-02-27T14:08:22.776Z,4.28
2023-02-27T14:11:20.577Z,5.90
2023-02-27T14:13:51.244Z,3.22
2023-02-27T14:16:39.985Z,3.70
2023-02-27T14:19:17.212Z,3.90
2023-02-27T14:22:04.182Z,5.82
2023-02-27T14:24:38.124Z,5.30
2023-02-27T14:27:15.700Z,3.72
2023-02-27T14:29:46.695Z,4.20
2023-02-27T14:32:32.972Z,4.32
2023-02-27T14:35:02.304Z,6.00
2023-02-27T14:37:30.687Z,9.07
2023-02-27T14:39:59.977Z,4.22
2023-02-27T14:45:03.249Z,4.57
2023-02-27T14:47:36.038Z,5.40
2023-02-27T14:50:06.030Z,3.30
2023-02-27T14:52:41.773Z,4.72
2023-02-27T14:55:29.895Z,4.53
2023-02-27T14:58:17.412Z,6.55
2023-02-27T15:00:50.720Z,7.50
2023-02-27T15:03:27.168Z,5.95
2023-02-27T15:05:59.008Z,5.22
2023-02-27T15:08:30.183Z,6.28
2023-02-27T15:10:59.222Z,5.32
2023-02-27T15:13:32.832Z,12.13
2023-02-27T15:16:18.966Z,4.15
2023-02-27T15:18:51.045Z,6.60
2023-02-27T15:21:24.507Z,3.45
2023-02-27T15:23:59.580Z,3.58
2023-02-27T15:26:30.168Z,4.57
2023-02-27T15:28:59.904Z,3.63
2023-02-27T15:31:30.182Z,6.22
2023-02-27T15:33:59.960Z,4.18
2023-02-27T15:36:33.157Z,3.97
2023-02-27T15:39:07.658Z,6.07
2023-02-27T15:41:35.795Z,6.18
2023-02-27T15:44:03.748Z,4.78
2023-02-27T15:46:31.627Z,6.88
2023-02-27T15:48:59.324Z,5.03
2023-02-27T15:51:28.123Z,3.67
2023-02-27T15:53:59.158Z,5.90
2023-02-27T15:56:30.447Z,5.13
2023-02-27T15:59:00.876Z,6.20
2023-02-27T16:01:32.439Z,7.70
2023-02-27T16:04:05.596Z,5.20
2023-02-27T16:06:39.465Z,4.40
2023-02-27T16:09:19.902Z,8.13
2023-02-27T16:11:47.505Z,5.75
2023-02-27T16:14:37.840Z,7.30
2023-02-27T16:17:22.682Z,5.90
2023-02-27T16:19:50.017Z,5.68
2023-02-27T16:22:19.612Z,4.03
2023-02-27T16:24:49.584Z,4.85
2023-02-27T16:29:53.351Z,5.00
2023-02-27T16:32:23.715Z,7.65
2023-02-27T16:34:51.981Z,8.85
2023-02-27T16:37:27.160Z,8.32
2023-02-27T16:39:54.522Z,4.63
2023-02-27T16:42:22.731Z,6.30
2023-02-27T16:44:50.332Z,6.13
2023-02-27T16:47:17.717Z,8.10
2023-02-27T16:49:46.431Z,5.20
2023-02-27T16:52:14.088Z,6.22
2023-02-27T16:54:41.678Z,7.57
2023-02-27T16:57:09.877Z,6.65
2023-02-27T16:59:40.373Z,6.72
2023-02-27T17:02:13.312Z,7.10
2023-02-27T17:04:44.358Z,8.65
2023-02-27T17:07:17.051Z,6.13
2023-02-27T17:09:47.890Z,9.15
2023-02-27T17:12:15.522Z,6.13
2023-02-27T17:14:43.239Z,7.85
2023-02-27T17:17:11.484Z,7.10
2023-02-27T17:19:39.144Z,7.55
2023-02-27T17:22:06.646Z,5.43
2023-02-27T17:24:34.338Z,7.85
2023-02-27T17:27:01.689Z,7.47
2023-02-27T17:29:29.147Z,6.32
2023-02-27T17:31:57.691Z,7.82
2023-02-27T17:34:25.331Z,7.85
2023-02-27T17:36:53.364Z,7.35
2023-02-27T17:39:20.760Z,9.30
2023-02-27T17:41:48.301Z,8.43
2023-02-27T17:44:15.801Z,9.43
2023-02-27T17:46:43.309Z,10.50
2023-02-27T17:49:10.639Z,8.45
2023-02-27T17:51:38.143Z,11.50
2023-02-27T17:54:06.354Z,9.57
2023-02-27T17:56:36.768Z,8.27
2023-02-27T17:59:05.098Z,8.82
2023-02-27T18:01:32.615Z,11.65
2023-02-27T18:04:00.095Z,9.35
2023-02-27T18:06:28.730Z,10.63
2023-02-27T18:08:56.239Z,8.55
2023-02-27T18:11:23.738Z,9.85
2023-02-27T18:13:51.525Z,8.18
2023-02-27T18:16:21.922Z,8.38
2023-02-27T18:18:49.826Z,13.10
2023-02-27T18:21:23.191Z,9.45
2023-02-27T18:23:51.850Z,8.07
2023-02-27T18:26:30.335Z,13.07
2023-02-27T18:29:01.127Z,9.63
2023-02-27T18:33:57.295Z,9.95
2023-02-27T18:36:25.051Z,10.43
2023-02-27T18:38:52.549Z,9.38
2023-02-27T18:41:19.932Z,9.32
2023-02-27T18:43:47.577Z,7.30
2023-02-27T18:46:15.194Z,10.13
2023-02-27T18:48:45.937Z,8.05
2023-02-27T18:51:14.946Z,9.07
2023-02-27T18:53:44.592Z,9.23
2023-02-27T18:56:12.633Z,11.55
2023-02-27T18:58:40.441Z,10.68
2023-02-27T19:01:08.514Z,7.05
2023-02-27T19:03:36.002Z,11.45
2023-02-27T19:06:03.780Z,11.32
2023-02-27T19:08:31.608Z,9.70
2023-02-27T19:10:59.312Z,12.93
2023-02-27T19:13:26.892Z,8.27
2023-02-27T19:15:54.531Z,9.55
2023-02-27T19:18:22.113Z,7.88
2023-02-27T19:20:49.693Z,10.18
2023-02-27T19:23:17.109Z,12.23
2023-02-27T19:25:45.961Z,7.60
2023-02-27T19:28:13.352Z,8.23
2023-02-27T19:30:41.167Z,10.77
2023-02-27T19:33:08.639Z,9.90
2023-02-27T19:35:38.526Z,13.02
2023-02-27T19:38:06.002Z,9.32
2023-02-27T19:40:33.526Z,9.77
2023-02-27T19:43:00.831Z,10.20
2023-02-27T19:45:28.952Z,8.52
2023-02-27T19:47:56.454Z,11.38
2023-02-27T19:50:24.125Z,10.20
2023-02-27T19:52:52.326Z,10.30
2023-02-27T19:55:19.634Z,14.13
2023-02-27T19:57:47.454Z,12.55
2023-02-27T20:00:15.718Z,12.65
2023-02-27T20:02:43.748Z,11.10
2023-02-27T20:05:12.174Z,11.52
2023-02-27T20:07:40.389Z,12.13
2023-02-27T20:10:08.053Z,10.68
2023-02-27T20:12:35.652Z,14.07
2023-02-27T20:15:08.864Z,9.75
2023-02-27T20:17:36.794Z,13.57
2023-02-27T20:20:05.654Z,10.90
2023-02-27T20:22:33.322Z,10.93
2023-02-27T20:25:00.840Z,14.27
2023-02-27T20:27:28.478Z,11.32
2023-02-27T20:29:56.445Z,11.27
2023-02-27T20:32:24.703Z,12.00
2023-02-27T20:34:54.788Z,10.75
2023-02-27T20:37:23.395Z,17.70
2023-02-27T20:39:50.720Z,14.23
2023-02-27T20:42:18.017Z,12.52
2023-02-27T20:44:47.798Z,15.80
2023-02-27T20:47:15.192Z,17.67
2023-02-27T20:49:42.453Z,17.02
2023-02-27T20:52:09.680Z,19.42
2023-02-27T20:54:37.800Z,12.82
2023-02-27T20:57:05.449Z,11.80
2023-02-27T20:59:32.974Z,14.45
2023-02-27T21:02:00.212Z,15.18
2023-02-27T21:04:43.125Z,17.83
2023-02-27T21:07:16.072Z,13.18
2023-02-27T21:09:43.580Z,14.73
2023-02-27T21:12:11.664Z,13.55
2023-02-27T21:14:39.173Z,16.20
2023-02-27T21:17:07.139Z,13.75
2023-02-27T21:19:34.520Z,15.43
2023-02-27T21:22:01.999Z,17.38
2023-02-27T21:24:32.478Z,14.45
2023-02-27T21:27:00.127Z,14.00
2023-02-27T21:29:27.444Z,15.95
2023-02-27T21:31:55.254Z,18.05
2023-02-27T21:34:25.887Z,12.77
2023-02-27T21:36:54.452Z,17.48
2023-02-27T21:39:24.771Z,15.73
2023-02-27T21:41:52.386Z,16.02
2023-02-27T21:44:21.707Z,14.98
2023-02-27T21:46:49.194Z,16.05
2023-02-27T21:49:24.736Z,13.10
2023-02-27T21:51:52.193Z,14.73
2023-02-27T21:54:22.235Z,16.58
2023-02-27T21:56:50.437Z,14.65
2023-02-27T21:59:18.906Z,17.40
2023-02-27T22:01:47.738Z,24.42
2023-02-27T22:04:20.001Z,34.10
2023-02-27T22:06:48.979Z,26.00
2023-02-27T22:09:16.381Z,15.38
2023-02-27T22:11:44.211Z,16.15
2023-02-27T22:14:12.215Z,14.43
2023-02-27T22:16:39.719Z,15.45
2023-02-27T22:19:13.085Z,19.05
2023-02-27T22:21:40.810Z,15.95
2023-02-27T22:24:09.242Z,16.25
2023-02-27T22:26:36.604Z,14.93
2023-02-27T22:29:05.821Z,18.00
2023-02-27T22:31:35.660Z,21.65
2023-02-27T22:34:06.295Z,16.08
2023-02-27T22:36:35.101Z,15.73
2023-02-27T22:39:03.570Z,17.52
2023-02-27T22:41:33.393Z,17.45
2023-02-27T22:46:34.317Z,18.83
2023-02-27T22:49:07.534Z,18.65
2023-02-27T22:51:35.278Z,15.95
2023-02-27T22:54:04.888Z,14.73
2023-02-27T22:56:33.804Z,19.27
2023-02-27T22:59:01.291Z,14.73
2023-02-27T23:01:31.605Z,25.58
2023-02-27T23:04:01.661Z,15.55
2023-02-27T23:08:59.026Z,20.80
2023-02-27T23:11:26.895Z,19.70
2023-02-27T23:13:54.414Z,15.75
2023-02-27T23:16:22.071Z,22.05
2023-02-27T23:18:51.589Z,16.55
2023-02-27T23:21:22.047Z,13.30
2023-02-27T23:23:49.755Z,18.08
2023-02-27T23:26:17.110Z,13.38
2023-02-27T23:28:44.488Z,15.57
2023-02-27T23:31:12.164Z,16.35
2023-02-27T23:33:40.260Z,14.68
2023-02-27T23:36:07.663Z,16.15
2023-02-27T23:38:35.056Z,18.80
2023-02-27T23:41:09.489Z,13.77
2023-02-27T23:43:36.902Z,14.85
2023-02-27T23:46:12.622Z,13.10
2023-02-27T23:48:40.494Z,15.45
2023-02-27T23:51:09.225Z,16.15
2023-02-27T23:53:40.361Z,14.52
2023-02-27T23:56:22.905Z,16.63
2023-02-27T23:58:59.153Z,14.13
